Accueil
METAR-TAF:

METAR-TAF

Aéroports :

Mönchengladbach, Allemagne

latitude: 51-13-49N, longitude: 006-30-16E, altitude: 38 m

Observation

Le bulletin a été fait il y a 1 heure et 12 minutes, à 03:50 UTC
Vent 2 kt de direction variable
Température 11°C
Humidité 82%
Pression 1025 hPa
Visibilité 10 km ou plus

METAR: EDLN 060350Z AUTO VRB02KT 9999 // FEW052/// 11/08 Q1025

Heure: 07:02 (05:02 UTC)

Prévision

Le bulletin a été fait il y a 12 heures et 2 minutes, à 17:00 UTC
Prévision valable du 05 à 18 UTC au 06 à 03 UTC
Vent 10 kt de nord-ouest
Visibilité 10 km ou plus
pas de nuages en-dessous de 1500 mètres et pas de cumulonimbus.
Evoluant progressivement
du 05 à 19 UTC au 05 à 22 UTC
Vent 5 kt de nord-ouest
Evoluant progressivement
du 05 à 23 UTC au 06 à 01 UTC
Vent 3 kt de direction variable

TAF: EDLN 051700Z 0518/0603 31010KT CAVOK BECMG 0519/0522 31005KT BECMG 0523/0601 VRB03KT

Observations et prévisions météorologiques de plus de 4000 aéroports (messages METAR et TAF).

Les stations disponibles sont représentées par des disques jaunes et rouges sur la carte.

Passer la souris dessus pour voir le nom de la station.

Cliquer dessus pour voir les observations et prévisions météorologiques.

Pour changer de carte: cliquez sur les boutons verts avec une croix noire pour zoomer, sur le bouton vert avec un tiret pour effectuer un zoom arrière, ou sur les flèches vertes pour les cartes adjacentes.


METAR-TAF: